Time;durP1;ratioP1;P1;durP2;ratioP2;P2;SDS_P1;SDS_P2;PMS_P1;PMS_P2;Temp;Humidity;BMP_temperature;BMP_pressure;BME280_temperature;BME280_humidity;BME280_pressure;Samples;Min_cycle;Max_cycle;Signal;HPM_P1;HPM_P2
2021/12/29 00:01:47;;;;;;;29.17;15.20;;;8.40;99.90;;;;;;5095258;28;20107;-66
2021/12/29 00:04:13;;;;;;;28.13;15.60;;;8.50;99.90;;;;;;5093773;28;20035;-66
2021/12/29 00:06:39;;;;;;;25.90;13.77;;;8.40;99.90;;;;;;5094179;28;20061;-66
2021/12/29 00:09:05;;;;;;;22.48;12.43;;;8.50;99.90;;;;;;5076170;28;20135;-66
2021/12/29 00:11:31;;;;;;;23.13;11.95;;;8.50;99.90;;;;;;5076626;28;20140;-67
2021/12/29 00:13:58;;;;;;;23.20;12.07;;;8.50;99.90;;;;;;5095087;28;20031;-66
2021/12/29 00:16:24;;;;;;;20.63;11.98;;;8.50;99.90;;;;;;5093103;28;20024;-66
2021/12/29 00:18:49;;;;;;;23.90;12.13;;;8.50;99.90;;;;;;5094956;28;20028;-67
2021/12/29 00:21:15;;;;;;;21.42;11.73;;;8.60;99.90;;;;;;5093335;28;20073;-67
2021/12/29 00:23:40;;;;;;;22.85;11.40;;;8.50;99.90;;;;;;5094823;28;20027;-66
2021/12/29 00:26:06;;;;;;;24.17;11.73;;;8.60;99.90;;;;;;5094810;28;20477;-66
2021/12/29 00:28:32;;;;;;;24.45;12.07;;;8.60;99.90;;;;;;5094628;28;20028;-66
2021/12/29 00:30:57;;;;;;;26.70;13.25;;;8.60;99.90;;;;;;5094420;28;20055;-66
2021/12/29 00:33:23;;;;;;;27.45;13.32;;;8.60;99.90;;;;;;5059952;28;20023;-67
2021/12/29 00:35:48;;;;;;;24.90;12.25;;;8.60;99.90;;;;;;5093164;28;20031;-66
2021/12/29 00:38:15;;;;;;;29.65;12.15;;;8.60;99.90;;;;;;5093140;28;20073;-67
2021/12/29 00:40:40;;;;;;;24.92;11.25;;;8.60;99.90;;;;;;5094607;28;20077;-66
2021/12/29 00:43:07;;;;;;;28.58;13.30;;;8.60;99.90;;;;;;5093042;28;20346;-66
2021/12/29 00:45:38;;;;;;;28.17;13.52;;;8.60;99.90;;;;;;5093017;28;20461;-66
2021/12/29 00:48:08;;;;;;;28.20;13.15;;;8.60;99.90;;;;;;5094376;28;20024;-66
2021/12/29 00:50:34;;;;;;;27.38;13.18;;;8.60;99.90;;;;;;5092615;28;20474;-66
2021/12/29 00:52:59;;;;;;;21.15;11.65;;;8.60;99.90;;;;;;5094430;28;20027;-67
2021/12/29 00:55:25;;;;;;;21.92;11.57;;;8.70;99.90;;;;;;5094369;28;20479;-66
2021/12/29 00:57:51;;;;;;;19.75;9.85;;;8.70;99.90;;;;;;5094012;28;20088;-66
2021/12/29 01:00:20;;;;;;;18.02;9.57;;;8.70;99.90;;;;;;5094314;28;20027;-67
2021/12/29 01:02:47;;;;;;;18.70;9.85;;;8.70;99.90;;;;;;5093710;28;20032;-67
2021/12/29 01:05:14;;;;;;;17.15;9.60;;;8.70;99.90;;;;;;5092644;28;20024;-66
2021/12/29 01:07:41;;;;;;;15.50;8.60;;;8.70;99.90;;;;;;5093944;28;20148;-66
2021/12/29 01:10:08;;;;;;;19.88;10.68;;;8.70;99.90;;;;;;5092307;28;20028;-67
2021/12/29 01:12:33;;;;;;;18.45;10.45;;;8.70;99.90;;;;;;5094189;28;20100;-66
2021/12/29 01:15:01;;;;;;;19.10;10.30;;;8.70;99.90;;;;;;5092712;28;20411;-67
2021/12/29 01:17:27;;;;;;;16.85;9.80;;;8.70;99.90;;;;;;5092405;28;20099;-66
2021/12/29 01:19:54;;;;;;;14.77;9.50;;;8.70;99.90;;;;;;5075729;28;20119;-67
2021/12/29 01:22:21;;;;;;;16.92;10.13;;;8.80;99.90;;;;;;5093160;28;20024;-67
2021/12/29 01:24:46;;;;;;;14.40;9.15;;;8.80;99.90;;;;;;5094105;28;20418;-67
2021/12/29 01:27:13;;;;;;;12.60;7.97;;;8.80;99.90;;;;;;5094016;28;20024;-66
2021/12/29 01:29:40;;;;;;;13.77;9.05;;;8.80;99.90;;;;;;5093962;28;20020;-67
2021/12/29 01:32:06;;;;;;;13.73;8.10;;;8.80;99.90;;;;;;5092305;28;20162;-67
2021/12/29 01:34:32;;;;;;;12.15;7.72;;;8.80;99.90;;;;;;5075384;28;20081;-67
2021/12/29 01:36:58;;;;;;;13.70;8.55;;;8.80;99.90;;;;;;5093987;28;20017;-66
2021/12/29 01:39:24;;;;;;;13.32;7.90;;;8.80;99.90;;;;;;5092459;28;20028;-67
2021/12/29 01:41:54;;;;;;;11.77;8.07;;;8.80;99.90;;;;;;5092667;28;20028;-67
2021/12/29 01:44:23;;;;;;;11.07;7.90;;;8.90;99.90;;;;;;5092195;28;20414;-67
2021/12/29 01:46:50;;;;;;;14.02;8.27;;;8.90;99.90;;;;;;5075768;28;20081;-67
2021/12/29 01:49:15;;;;;;;11.55;8.07;;;8.90;99.90;;;;;;5093706;28;20025;-66
2021/12/29 01:51:48;;;;;;;11.98;7.63;;;8.90;99.90;;;;;;5075164;28;20035;-67
2021/12/29 01:54:23;;;;;;;;;;;8.90;99.90;;;;;;5094231;28;20021;-67
2021/12/29 01:56:49;;;;;;;15.93;8.32;;;8.90;99.90;;;;;;5092411;28;20345;-67
2021/12/29 01:59:15;;;;;;;17.75;9.23;;;9.00;99.90;;;;;;5093740;28;20043;-67
2021/12/29 02:01:41;;;;;;;13.40;8.68;;;9.00;99.90;;;;;;5075153;28;20111;-67
2021/12/29 02:04:06;;;;;;;14.00;9.10;;;9.00;99.90;;;;;;5091851;28;20438;-67
2021/12/29 02:06:32;;;;;;;13.93;9.10;;;9.00;99.90;;;;;;5092199;28;20028;-67
2021/12/29 02:08:58;;;;;;;17.38;9.68;;;8.90;99.90;;;;;;5091568;28;20083;-67
2021/12/29 02:11:29;;;;;;;13.32;8.77;;;8.90;99.90;;;;;;5093340;28;20024;-66
2021/12/29 02:13:57;;;;;;;13.95;8.68;;;8.90;99.90;;;;;;5093324;28;20021;-67
2021/12/29 02:16:23;;;;;;;17.45;8.18;;;8.90;99.90;;;;;;5077149;28;20024;-66
2021/12/29 02:18:53;;;;;;;12.10;7.85;;;8.90;99.90;;;;;;5097233;28;20028;-67
2021/12/29 02:21:21;;;;;;;11.20;7.43;;;8.80;99.90;;;;;;5097185;28;20111;-67
2021/12/29 02:24:04;;;;;;;12.95;7.70;;;8.80;99.90;;;;;;5096202;28;20076;-67
2021/12/29 02:26:32;;;;;;;12.45;7.82;;;8.80;99.90;;;;;;5096569;28;20016;-67
2021/12/29 02:29:01;;;;;;;12.90;8.70;;;8.80;99.90;;;;;;5096686;28;20032;-67
2021/12/29 02:31:27;;;;;;;13.45;8.15;;;8.80;99.90;;;;;;5096984;28;20412;-67
2021/12/29 02:33:54;;;;;;;13.18;8.57;;;8.80;99.90;;;;;;5095783;28;20362;-67
2021/12/29 02:36:21;;;;;;;12.05;8.13;;;8.80;99.90;;;;;;5095086;28;20020;-67
2021/12/29 02:38:51;;;;;;;12.95;7.97;;;;;;;;;;5096302;28;20473;-67
2021/12/29 02:41:20;;;;;;;19.35;8.80;;;8.80;99.90;;;;;;5096547;28;20021;-66
2021/12/29 02:43:47;;;;;;;16.73;8.70;;;8.70;99.90;;;;;;5094963;28;20024;-67
2021/12/29 02:46:17;;;;;;;13.40;7.90;;;8.70;99.90;;;;;;5096173;28;20024;-67
2021/12/29 02:48:53;;;;;;;15.52;9.10;;;8.70;99.90;;;;;;5096599;28;20039;-66
2021/12/29 02:51:19;;;;;;;17.45;8.80;;;8.70;99.90;;;;;;5095239;28;20044;-67
2021/12/29 02:53:47;;;;;;;14.10;8.20;;;8.90;99.90;;;;;;5096262;28;20066;-67
2021/12/29 02:56:13;;;;;;;17.40;8.18;;;;;;;;;;5094726;28;20025;-67
2021/12/29 02:58:39;;;;;;;13.13;7.70;;;;;;;;;;5096230;28;20067;-67
2021/12/29 03:01:10;;;;;;;14.45;7.25;;;;;;;;;;5096154;28;20158;-67
2021/12/29 03:03:37;;;;;;;11.90;7.93;;;8.90;99.90;;;;;;5094590;28;20030;-67
2021/12/29 03:06:05;;;;;;;12.38;8.05;;;8.90;99.90;;;;;;5096343;28;20026;-67
2021/12/29 03:08:30;;;;;;;12.02;7.82;;;8.90;99.90;;;;;;5094195;28;20048;-67
2021/12/29 03:10:56;;;;;;;12.52;8.15;;;8.90;99.90;;;;;;5096213;28;20028;-67
2021/12/29 03:13:26;;;;;;;15.60;8.75;;;8.90;99.90;;;;;;5094729;28;20030;-67
2021/12/29 03:15:54;;;;;;;17.70;9.65;;;;;;;;;;5095616;28;20055;-67
2021/12/29 03:18:20;;;;;;;14.25;9.02;;;8.90;99.90;;;;;;5095609;28;20021;-67
2021/12/29 03:20:49;;;;;;;17.25;9.07;;;8.90;99.90;;;;;;5096061;28;20082;-67
2021/12/29 03:23:17;;;;;;;13.63;8.93;;;8.90;99.90;;;;;;5077317;28;20020;-67
2021/12/29 03:25:48;;;;;;;14.85;9.73;;;;;;;;;;5095388;28;20028;-67
2021/12/29 03:28:16;;;;;;;13.15;8.77;;;8.90;99.90;;;;;;5095569;28;20043;-66
2021/12/29 03:30:43;;;;;;;11.45;8.02;;;8.90;99.90;;;;;;5094389;28;20144;-67
2021/12/29 03:33:09;;;;;;;12.18;8.13;;;9.00;99.90;;;;;;5094679;28;20108;-67
2021/12/29 03:35:40;;;;;;;10.82;7.70;;;9.00;99.90;;;;;;5095750;28;20048;-67
2021/12/29 03:38:08;;;;;;;10.98;7.55;;;9.00;99.90;;;;;;5094271;28;20024;-67
2021/12/29 03:40:37;;;;;;;11.48;7.80;;;9.00;99.90;;;;;;5093839;28;20074;-67
2021/12/29 03:43:05;;;;;;;10.50;7.20;;;9.00;99.90;;;;;;5095340;28;20020;-67
2021/12/29 03:45:32;;;;;;;12.77;7.65;;;9.00;99.90;;;;;;5094329;28;20035;-67
2021/12/29 03:47:58;;;;;;;12.93;8.75;;;9.00;99.90;;;;;;5094059;28;20032;-67
2021/12/29 03:50:24;;;;;;;12.18;7.70;;;9.00;99.90;;;;;;5093678;28;20028;-67
2021/12/29 03:52:49;;;;;;;13.23;8.07;;;9.00;99.90;;;;;;5076897;28;20104;-67
2021/12/29 03:55:15;;;;;;;12.65;8.43;;;8.90;99.90;;;;;;5093914;28;20469;-67
2021/12/29 03:57:41;;;;;;;11.68;8.18;;;8.90;99.90;;;;;;5095619;28;20066;-67
2021/12/29 04:00:12;;;;;;;12.15;7.97;;;8.90;99.90;;;;;;5095277;28;20056;-67
2021/12/29 04:02:38;;;;;;;14.43;7.80;;;8.90;99.90;;;;;;5094983;28;20024;-67
2021/12/29 04:05:05;;;;;;;15.35;8.30;;;8.90;99.90;;;;;;5093723;28;20031;-67
2021/12/29 04:07:31;;;;;;;16.63;8.05;;;8.90;99.90;;;;;;5076408;28;20485;-67
2021/12/29 04:09:58;;;;;;;12.60;7.88;;;8.80;99.90;;;;;;5093592;28;20027;-67
2021/12/29 04:12:23;;;;;;;12.77;8.48;;;8.80;99.90;;;;;;5094173;28;20020;-67
2021/12/29 04:14:49;;;;;;;12.75;8.00;;;8.80;99.90;;;;;;5095046;28;20020;-67
2021/12/29 04:17:18;;;;;;;13.73;8.20;;;8.80;99.90;;;;;;5076816;28;20031;-67
2021/12/29 04:22:31;;;;;;;12.73;7.93;;;8.80;99.90;;;;;;5094184;28;20034;-67
2021/12/29 04:24:57;;;;;;;12.05;7.35;;;8.80;99.90;;;;;;5093380;28;20028;-67
2021/12/29 04:27:24;;;;;;;14.70;8.25;;;8.80;99.90;;;;;;5094772;28;20032;-67
2021/12/29 04:29:51;;;;;;;14.05;8.65;;;8.80;99.90;;;;;;5076690;28;20076;-67
2021/12/29 04:32:17;;;;;;;15.98;8.50;;;8.80;99.90;;;;;;5094720;28;20063;-67
2021/12/29 04:34:43;;;;;;;17.27;8.82;;;8.80;99.90;;;;;;5076069;28;20019;-67
2021/12/29 04:37:08;;;;;;;15.50;8.55;;;8.80;99.90;;;;;;5093567;28;20032;-66
2021/12/29 04:39:34;;;;;;;14.27;8.43;;;8.70;99.90;;;;;;5094353;28;20059;-67
2021/12/29 04:41:59;;;;;;;13.40;8.23;;;8.70;99.90;;;;;;5075971;28;20126;-67
2021/12/29 04:44:25;;;;;;;17.58;8.48;;;8.70;99.90;;;;;;5092705;28;20024;-66
2021/12/29 04:46:54;;;;;;;13.32;7.72;;;8.70;99.90;;;;;;5093336;28;20055;-67
2021/12/29 04:49:24;;;;;;;12.07;7.68;;;8.70;99.90;;;;;;5094326;28;20073;-66
2021/12/29 04:52:03;;;;;;;15.75;7.78;;;8.70;99.90;;;;;;5092998;28;20093;-66
2021/12/29 04:54:30;;;;;;;15.30;8.10;;;8.70;99.90;;;;;;5093372;28;20024;-66
2021/12/29 04:56:56;;;;;;;17.00;8.52;;;8.70;99.90;;;;;;5092498;28;20022;-66
2021/12/29 04:59:23;;;;;;;15.55;8.73;;;8.70;99.90;;;;;;5092506;28;20036;-68
2021/12/29 05:01:48;;;;;;;16.05;9.60;;;8.60;99.90;;;;;;5094256;28;20024;-70
2021/12/29 05:04:33;;;;;;;16.15;9.70;;;8.60;99.90;;;;;;5094183;28;20028;-68
2021/12/29 05:09:46;;;;;;;15.73;8.95;;;8.60;99.90;;;;;;5093274;28;20051;-68
2021/12/29 05:12:12;;;;;;;15.05;8.60;;;8.70;99.90;;;;;;5093192;28;20024;-68
2021/12/29 05:14:37;;;;;;;13.88;8.50;;;8.70;99.90;;;;;;5093201;28;20024;-67
2021/12/29 05:17:05;;;;;;;16.75;9.05;;;8.70;99.90;;;;;;5092698;28;20035;-68
2021/12/29 05:19:32;;;;;;;14.82;8.43;;;8.70;99.90;;;;;;5094126;28;20027;-67
2021/12/29 05:21:58;;;;;;;15.43;8.30;;;8.70;99.90;;;;;;5092670;28;20020;-68
2021/12/29 05:24:23;;;;;;;16.92;8.32;;;8.80;99.90;;;;;;5094081;28;20024;-68
2021/12/29 05:26:49;;;;;;;16.48;9.50;;;8.70;99.90;;;;;;5092524;28;20024;-67
2021/12/29 05:29:14;;;;;;;17.00;8.95;;;8.80;99.90;;;;;;5092118;28;20032;-67
2021/12/29 05:31:40;;;;;;;14.05;8.38;;;8.80;99.90;;;;;;5075366;28;20020;-67
2021/12/29 05:34:05;;;;;;;16.20;8.93;;;8.80;99.90;;;;;;5075607;28;20016;-67
2021/12/29 05:36:31;;;;;;;16.92;9.15;;;8.90;99.90;;;;;;5092522;28;20024;-67
2021/12/29 05:38:59;;;;;;;18.55;8.32;;;8.80;99.90;;;;;;5075298;28;20063;-67
2021/12/29 05:41:25;;;;;;;17.70;8.85;;;8.80;99.90;;;;;;5058936;28;20441;-68
2021/12/29 05:43:51;;;;;;;17.65;9.75;;;8.80;99.90;;;;;;5092421;28;20028;-67
2021/12/29 05:46:17;;;;;;;21.38;10.15;;;8.80;99.90;;;;;;5092707;28;20107;-67
2021/12/29 05:48:43;;;;;;;20.70;10.43;;;8.80;99.90;;;;;;5093264;28;20388;-67
2021/12/29 05:51:11;;;;;;;21.05;11.45;;;8.70;99.90;;;;;;5095268;28;20020;-67
2021/12/29 05:53:38;;;;;;;19.83;9.82;;;8.70;99.90;;;;;;5096069;28;20085;-68
2021/12/29 05:56:03;;;;;;;20.15;11.35;;;8.70;99.90;;;;;;5096139;28;20035;-68
2021/12/29 05:58:29;;;;;;;18.50;10.13;;;8.70;99.90;;;;;;5079121;28;20036;-67
2021/12/29 06:00:54;;;;;;;22.55;10.68;;;8.60;99.90;;;;;;5096183;28;20065;-67
2021/12/29 06:03:20;;;;;;;22.58;11.20;;;8.70;99.90;;;;;;5097298;28;20020;-67
2021/12/29 06:05:46;;;;;;;22.15;11.50;;;8.60;99.90;;;;;;5097539;28;20031;-67
2021/12/29 06:08:11;;;;;;;23.15;11.30;;;8.60;99.90;;;;;;5095740;28;20079;-67
2021/12/29 06:10:37;;;;;;;22.48;11.48;;;8.60;99.90;;;;;;5095931;28;20035;-67
2021/12/29 06:13:02;;;;;;;20.92;12.05;;;8.60;99.90;;;;;;5097489;28;20020;-67
2021/12/29 06:15:29;;;;;;;21.63;12.85;;;8.60;99.90;;;;;;5095903;28;20461;-67
2021/12/29 06:17:55;;;;;;;25.85;12.45;;;8.60;99.90;;;;;;5079059;28;20032;-67
2021/12/29 06:20:20;;;;;;;27.15;14.25;;;8.60;99.90;;;;;;5095521;28;20103;-67
2021/12/29 06:22:46;;;;;;;27.70;14.20;;;8.60;99.90;;;;;;5097163;28;20107;-66
2021/12/29 06:25:15;;;;;;;26.58;14.70;;;8.50;99.90;;;;;;5095583;28;20049;-67
2021/12/29 06:27:40;;;;;;;28.30;14.98;;;8.50;99.90;;;;;;5096799;28;20040;-67
2021/12/29 06:30:08;;;;;;;30.05;14.73;;;8.50;99.90;;;;;;5095147;28;20451;-67
2021/12/29 06:32:34;;;;;;;26.23;14.07;;;8.50;99.90;;;;;;5095175;28;20115;-67
2021/12/29 06:35:00;;;;;;;24.63;13.88;;;8.50;99.90;;;;;;5095122;28;20063;-67
2021/12/29 06:37:25;;;;;;;25.98;13.18;;;8.50;99.90;;;;;;5096887;28;20020;-67
2021/12/29 06:39:51;;;;;;;23.38;12.68;;;8.50;99.90;;;;;;5094979;28;20027;-67
2021/12/29 06:42:17;;;;;;;22.40;13.10;;;8.40;99.90;;;;;;5078187;28;20020;-67
2021/12/29 06:44:44;;;;;;;23.98;13.07;;;8.40;99.90;;;;;;5078555;28;20354;-66
2021/12/29 06:47:11;;;;;;;22.88;13.10;;;8.40;99.90;;;;;;5094969;28;20028;-67
2021/12/29 06:49:36;;;;;;;20.33;12.25;;;8.40;99.90;;;;;;5096327;28;20145;-67
2021/12/29 06:52:03;;;;;;;24.73;13.75;;;8.40;99.90;;;;;;5077970;28;20058;-67
2021/12/29 06:54:29;;;;;;;25.02;14.18;;;8.40;99.90;;;;;;5061409;28;20031;-67
2021/12/29 06:56:55;;;;;;;26.67;14.63;;;8.40;99.90;;;;;;5094667;28;20139;-67
2021/12/29 06:59:20;;;;;;;27.02;14.52;;;8.40;99.90;;;;;;5096167;28;20184;-67
2021/12/29 07:01:47;;;;;;;27.45;14.90;;;8.40;99.90;;;;;;5077865;28;20376;-67
2021/12/29 07:04:12;;;;;;;31.90;16.45;;;8.40;99.90;;;;;;5095415;28;20081;-67
2021/12/29 07:06:38;;;;;;;30.80;17.05;;;8.40;99.90;;;;;;5094562;28;20427;-67
2021/12/29 07:09:05;;;;;;;31.90;16.55;;;8.40;99.90;;;;;;5077634;28;20040;-67
2021/12/29 07:11:31;;;;;;;31.52;16.13;;;8.40;99.90;;;;;;5094454;28;20027;-67
2021/12/29 07:13:59;;;;;;;28.55;16.80;;;8.40;99.90;;;;;;5096044;28;20028;-67
2021/12/29 07:16:25;;;;;;;35.95;17.48;;;8.40;99.90;;;;;;5095520;28;20028;-68
2021/12/29 07:18:50;;;;;;;32.08;16.02;;;8.40;99.90;;;;;;5094607;28;20036;-68
2021/12/29 07:21:16;;;;;;;33.63;16.45;;;8.40;99.90;;;;;;5077332;28;20020;-67
2021/12/29 07:23:42;;;;;;;29.42;15.23;;;8.40;99.90;;;;;;5094567;28;20035;-67
2021/12/29 07:26:07;;;;;;;28.13;14.23;;;8.40;99.90;;;;;;5095683;28;20024;-68
2021/12/29 07:28:33;;;;;;;29.13;14.23;;;8.40;99.90;;;;;;5093983;28;20031;-68
2021/12/29 07:30:58;;;;;;;29.27;14.55;;;8.40;99.90;;;;;;5094701;28;20126;-69
2021/12/29 07:33:24;;;;;;;32.58;14.40;;;8.40;99.90;;;;;;5077979;28;20024;-68
2021/12/29 07:35:49;;;;;;;24.83;14.02;;;8.30;99.90;;;;;;5095198;28;20079;-67
2021/12/29 07:38:15;;;;;;;26.77;14.48;;;8.40;99.90;;;;;;5093966;28;20032;-67
2021/12/29 07:40:41;;;;;;;26.83;13.82;;;8.30;99.90;;;;;;5095691;28;20414;-68
2021/12/29 07:43:06;;;;;;;29.15;14.20;;;8.30;99.90;;;;;;5095614;28;20403;-67
2021/12/29 07:45:32;;;;;;;30.02;14.40;;;8.30;99.90;;;;;;5093766;28;20131;-68
2021/12/29 07:47:58;;;;;;;26.05;13.40;;;8.30;99.90;;;;;;5095388;28;20024;-68
2021/12/29 07:50:23;;;;;;;29.55;13.27;;;8.30;99.90;;;;;;5093983;28;20024;-67
2021/12/29 07:52:49;;;;;;;27.88;14.05;;;8.30;99.90;;;;;;5094580;28;20024;-68
2021/12/29 07:55:16;;;;;;;27.95;14.15;;;8.30;99.90;;;;;;5094778;28;20031;-68
2021/12/29 07:57:42;;;;;;;30.58;14.73;;;8.30;99.90;;;;;;5095060;28;20020;-67
2021/12/29 08:00:09;;;;;;;31.48;14.60;;;8.30;99.90;;;;;;5093947;28;20020;-67
2021/12/29 08:02:36;;;;;;;32.95;14.38;;;8.30;99.90;;;;;;5095305;28;20021;-68
2021/12/29 08:05:04;;;;;;;35.30;15.57;;;8.30;99.90;;;;;;5093702;28;20035;-68
2021/12/29 08:07:30;;;;;;;33.38;15.35;;;8.30;99.90;;;;;;5076917;28;20100;-68
2021/12/29 08:09:56;;;;;;;34.33;16.75;;;8.30;99.90;;;;;;5094671;28;20153;-68
2021/12/29 08:12:21;;;;;;;36.13;16.27;;;8.30;99.90;;;;;;5076868;28;20055;-68
2021/12/29 08:14:48;;;;;;;31.95;18.13;;;8.40;99.90;;;;;;5094272;28;20085;-68
2021/12/29 08:17:15;;;;;;;31.95;17.77;;;8.40;99.90;;;;;;5093788;28;20016;-68
2021/12/29 08:19:42;;;;;;;40.97;19.52;;;8.40;99.90;;;;;;5094973;28;20111;-68
2021/12/29 08:22:08;;;;;;;40.40;19.90;;;8.40;99.90;;;;;;5093053;28;20077;-68
2021/12/29 08:24:33;;;;;;;35.95;19.20;;;8.40;99.90;;;;;;5094803;28;20024;-68
2021/12/29 08:26:59;;;;;;;41.50;20.55;;;8.40;99.90;;;;;;5092933;28;20032;-68
2021/12/29 08:29:25;;;;;;;38.20;20.05;;;8.40;99.90;;;;;;5094152;28;20035;-68
2021/12/29 08:31:50;;;;;;;41.63;20.50;;;8.40;99.90;;;;;;5093468;28;20038;-68
2021/12/29 08:34:16;;;;;;;37.75;20.45;;;8.40;99.90;;;;;;5092915;28;20081;-68
2021/12/29 08:36:42;;;;;;;37.28;20.60;;;8.40;99.90;;;;;;5093152;28;20032;-68
2021/12/29 08:39:08;;;;;;;39.22;21.17;;;8.50;99.90;;;;;;5071384;28;20033;-67
2021/12/29 08:41:34;;;;;;;48.03;23.85;;;8.50;99.90;;;;;;5072340;28;20024;-68
2021/12/29 08:44:00;;;;;;;42.05;23.88;;;8.50;99.90;;;;;;5089297;28;20028;-68
2021/12/29 08:46:26;;;;;;;49.20;26.20;;;8.50;99.90;;;;;;5083679;28;20024;-69
2021/12/29 08:48:52;;;;;;;48.33;25.50;;;8.50;99.90;;;;;;5082126;28;20028;-68
2021/12/29 08:51:19;;;;;;;48.78;27.23;;;8.50;99.90;;;;;;5059135;28;20154;-68
2021/12/29 08:53:45;;;;;;;55.70;27.25;;;8.50;99.90;;;;;;5072511;28;20025;-68
2021/12/29 08:56:12;;;;;;;50.72;26.75;;;8.60;99.90;;;;;;5074151;28;20070;-68
2021/12/29 08:58:37;;;;;;;51.00;27.63;;;8.60;99.90;;;;;;5068727;28;20020;-68
2021/12/29 09:01:04;;;;;;;53.97;28.20;;;8.70;99.90;;;;;;5071486;28;20020;-68
2021/12/29 09:03:30;;;;;;;52.85;27.80;;;8.70;99.90;;;;;;5071216;28;20465;-68
2021/12/29 09:05:56;;;;;;;57.80;29.38;;;8.70;99.90;;;;;;5089828;28;20019;-68
2021/12/29 09:08:21;;;;;;;52.38;29.20;;;8.80;99.90;;;;;;5093617;28;20466;-68
2021/12/29 09:10:47;;;;;;;52.97;28.60;;;8.80;99.90;;;;;;5092255;28;20028;-68
2021/12/29 09:13:14;;;;;;;57.60;30.02;;;8.80;99.90;;;;;;5093295;28;20056;-68
2021/12/29 09:15:39;;;;;;;54.55;29.13;;;8.80;99.90;;;;;;5083036;28;20074;-68
2021/12/29 09:18:05;;;;;;;55.55;29.42;;;8.80;99.90;;;;;;5093468;28;20024;-68
2021/12/29 09:20:33;;;;;;;57.63;29.88;;;8.80;99.90;;;;;;5088451;28;20066;-68
2021/12/29 09:23:05;;;;;;;55.83;28.85;;;8.80;99.90;;;;;;5082033;28;20016;-68
2021/12/29 09:25:31;;;;;;;55.17;29.67;;;8.90;99.90;;;;;;5095922;28;20480;-68
2021/12/29 09:27:57;;;;;;;60.72;30.05;;;8.80;99.90;;;;;;5078356;28;20024;-68
2021/12/29 09:30:30;;;;;;;56.33;29.80;;;8.80;99.90;;;;;;5068736;28;20024;-68
2021/12/29 09:32:55;;;;;;;56.92;30.20;;;8.80;99.90;;;;;;5096240;28;20020;-68
2021/12/29 09:35:22;;;;;;;64.05;32.33;;;8.80;99.90;;;;;;5096727;28;20027;-67
2021/12/29 09:37:50;;;;;;;59.03;31.30;;;8.80;99.90;;;;;;5116187;28;20024;-67
2021/12/29 09:40:18;;;;;;;59.30;30.35;;;8.80;99.90;;;;;;5115095;28;20020;-67
2021/12/29 09:42:45;;;;;;;54.35;30.65;;;8.80;99.90;;;;;;5118285;28;20030;-67
2021/12/29 09:45:11;;;;;;;52.28;30.35;;;8.80;99.90;;;;;;5100434;28;20031;-67
2021/12/29 09:47:37;;;;;;;60.05;31.67;;;8.80;99.90;;;;;;5084920;28;20036;-67
2021/12/29 09:50:05;;;;;;;56.05;30.75;;;8.80;99.90;;;;;;5094226;28;20032;-67
2021/12/29 09:52:33;;;;;;;55.17;29.95;;;8.80;99.90;;;;;;5096325;28;20047;-67
2021/12/29 09:55:04;;;;;;;55.33;29.00;;;8.80;99.90;;;;;;5104196;28;20076;-67
2021/12/29 09:57:30;;;;;;;55.60;28.48;;;8.80;99.90;;;;;;5077931;28;20444;-67
2021/12/29 09:59:56;;;;;;;51.42;28.98;;;8.90;99.90;;;;;;5100552;28;20045;-67
2021/12/29 10:02:22;;;;;;;52.63;29.42;;;8.90;99.90;;;;;;5079069;28;20023;-66
2021/12/29 10:04:47;;;;;;;60.13;29.92;;;8.90;99.90;;;;;;5095639;28;20028;-67
2021/12/29 10:07:18;;;;;;;54.78;29.42;;;8.80;99.90;;;;;;5091785;28;20481;-67
2021/12/29 10:09:44;;;;;;;53.00;28.52;;;8.90;99.90;;;;;;5094491;28;20047;-67
2021/12/29 10:12:17;;;;;;;57.10;29.17;;;8.90;99.90;;;;;;5096951;28;20103;-67
2021/12/29 10:14:48;;;;;;;47.20;26.80;;;8.90;99.90;;;;;;5095433;28;20028;-67
2021/12/29 10:17:13;;;;;;;54.92;29.75;;;9.00;99.90;;;;;;5094281;28;20012;-68
2021/12/29 10:19:39;;;;;;;55.83;31.30;;;9.00;99.90;;;;;;5096454;28;20039;-67
2021/12/29 10:22:05;;;;;;;63.33;32.13;;;9.00;99.90;;;;;;5083528;28;20073;-67
2021/12/29 10:24:30;;;;;;;59.20;32.42;;;9.00;99.90;;;;;;5097148;28;20027;-67
2021/12/29 10:26:58;;;;;;;69.13;34.70;;;9.00;99.90;;;;;;5071933;28;20024;-67
2021/12/29 10:29:27;;;;;;;68.60;36.53;;;9.00;99.90;;;;;;5094744;28;20035;-67
2021/12/29 10:31:59;;;;;;;67.38;36.70;;;9.00;99.90;;;;;;5079330;28;20034;-67
2021/12/29 10:34:29;;;;;;;76.47;38.28;;;9.00;99.90;;;;;;5095962;28;20069;-67
2021/12/29 10:37:05;;;;;;;79.75;40.28;;;9.00;99.90;;;;;;5100282;28;20376;-67
2021/12/29 10:39:35;;;;;;;81.13;41.78;;;9.00;99.90;;;;;;5089291;28;20037;-67
2021/12/29 10:42:21;;;;;;;78.63;40.03;;;9.20;99.90;;;;;;5095465;28;20032;-67
2021/12/29 10:44:52;;;;;;;74.05;39.35;;;9.20;99.90;;;;;;5075019;28;20032;-69
2021/12/29 10:47:24;;;;;;;75.93;39.88;;;9.30;99.90;;;;;;5051778;28;20115;-67
2021/12/29 10:49:56;;;;;;;69.25;37.13;;;9.40;99.90;;;;;;5092360;28;20032;-68
2021/12/29 10:52:31;;;;;;;65.60;37.95;;;9.40;99.90;;;;;;5078461;28;20027;-68
2021/12/29 10:54:56;;;;;;;69.30;37.00;;;9.40;99.90;;;;;;5077720;28;20035;-68
2021/12/29 10:57:22;;;;;;;66.20;36.60;;;9.40;99.90;;;;;;5095002;28;20036;-68
2021/12/29 10:59:55;;;;;;;65.15;35.72;;;9.40;99.90;;;;;;5095652;28;20049;-68
2021/12/29 11:02:26;;;;;;;64.68;36.88;;;9.40;99.90;;;;;;5096383;28;20077;-68
2021/12/29 11:05:02;;;;;;;67.07;36.40;;;9.40;99.90;;;;;;5095623;28;20036;-68
2021/12/29 11:07:29;;;;;;;62.38;36.17;;;9.40;99.90;;;;;;5095162;28;20039;-68
2021/12/29 11:09:55;;;;;;;64.60;36.45;;;9.50;99.90;;;;;;5094634;28;20031;-68
2021/12/29 11:12:24;;;;;;;57.60;34.15;;;9.50;99.90;;;;;;5081142;28;20375;-68
2021/12/29 11:14:53;;;;;;;62.03;35.15;;;9.50;99.90;;;;;;5075965;28;20021;-68
2021/12/29 11:17:23;;;;;;;61.47;35.65;;;9.50;99.90;;;;;;5087041;28;20111;-68
2021/12/29 11:19:53;;;;;;;59.95;34.72;;;9.60;99.90;;;;;;5095006;28;20099;-67
2021/12/29 11:22:23;;;;;;;61.47;34.47;;;9.60;99.90;;;;;;5095537;28;20408;-68
2021/12/29 11:24:58;;;;;;;58.80;34.22;;;9.70;99.90;;;;;;5093746;28;20066;-68
2021/12/29 11:27:25;;;;;;;56.42;33.45;;;9.70;99.90;;;;;;5076614;28;20485;-68
2021/12/29 11:29:57;;;;;;;56.47;33.83;;;9.80;99.90;;;;;;5095569;28;20063;-68
2021/12/29 11:32:28;;;;;;;61.60;35.08;;;9.80;99.90;;;;;;5094979;28;20024;-68
2021/12/29 11:35:00;;;;;;;56.97;33.50;;;9.70;99.90;;;;;;5094954;28;20028;-68
2021/12/29 11:37:26;;;;;;;59.35;34.40;;;9.70;99.90;;;;;;5093573;28;20024;-68
2021/12/29 11:39:51;;;;;;;59.47;33.72;;;9.70;99.90;;;;;;5076562;28;20427;-68
2021/12/29 11:42:17;;;;;;;61.65;35.63;;;9.60;99.90;;;;;;5095193;28;20038;-68
2021/12/29 11:44:44;;;;;;;65.15;36.05;;;9.60;99.90;;;;;;5072640;28;20070;-68
2021/12/29 11:47:11;;;;;;;57.75;34.22;;;9.60;99.90;;;;;;5093520;28;20036;-68
2021/12/29 11:49:37;;;;;;;63.33;35.15;;;9.60;99.90;;;;;;5087089;28;20028;-68
2021/12/29 11:55:08;;;;;;;61.95;36.63;;;9.60;99.90;;;;;;5110807;27;20431;-68
2021/12/29 11:57:35;;;;;;;57.15;34.67;;;9.60;99.90;;;;;;5099186;28;20026;-68
2021/12/29 12:00:19;;;;;;;57.97;34.25;;;9.70;99.90;;;;;;5106716;28;20541;-68
2021/12/29 12:02:48;;;;;;;58.92;33.65;;;9.70;99.90;;;;;;5091119;28;20054;-68
2021/12/29 12:05:17;;;;;;;60.72;35.10;;;9.60;99.90;;;;;;5100659;28;20024;-67
2021/12/29 12:07:43;;;;;;;58.80;33.90;;;9.70;99.90;;;;;;5091483;28;20362;-67
2021/12/29 12:10:14;;;;;;;56.45;33.83;;;9.80;99.90;;;;;;5100513;28;20131;-68
2021/12/29 12:12:44;;;;;;;58.92;33.38;;;9.80;99.90;;;;;;5094182;28;20086;-67
2021/12/29 12:15:27;;;;;;;55.35;33.40;;;9.90;99.90;;;;;;5089915;28;20461;-68
2021/12/29 12:17:55;;;;;;;54.15;32.28;;;9.90;99.90;;;;;;5090109;28;20104;-67
2021/12/29 12:20:21;;;;;;;53.25;31.30;;;9.90;99.90;;;;;;5089760;28;20028;-67
2021/12/29 12:22:51;;;;;;;48.42;29.85;;;9.90;99.90;;;;;;5103498;28;20092;-67
2021/12/29 12:25:31;;;;;;;51.30;31.13;;;9.90;99.90;;;;;;5069023;28;20024;-68
2021/12/29 12:28:02;;;;;;;52.42;30.60;;;10.00;99.90;;;;;;5083560;28;20020;-68
2021/12/29 12:30:47;;;;;;;52.55;31.08;;;10.00;99.90;;;;;;5089062;28;20028;-67
2021/12/29 12:33:17;;;;;;;49.95;29.33;;;9.90;99.90;;;;;;5072066;28;20028;-68
2021/12/29 12:35:46;;;;;;;50.88;29.75;;;10.00;99.90;;;;;;5090489;28;20025;-67
2021/12/29 12:38:16;;;;;;;50.63;28.35;;;10.00;99.90;;;;;;5090791;28;20099;-67
2021/12/29 12:40:43;;;;;;;47.80;28.20;;;9.90;99.90;;;;;;5090946;28;20021;-68
2021/12/29 12:43:17;;;;;;;45.25;27.70;;;9.90;99.90;;;;;;5090005;28;20027;-68
2021/12/29 12:45:46;;;;;;;42.50;25.75;;;9.90;99.90;;;;;;5088590;28;20028;-67
2021/12/29 12:48:18;;;;;;;45.60;28.00;;;9.90;99.90;;;;;;5089084;28;20021;-68
2021/12/29 12:50:44;;;;;;;41.60;25.88;;;9.90;99.90;;;;;;5071748;28;20094;-68
2021/12/29 12:53:11;;;;;;;42.92;26.58;;;9.90;99.90;;;;;;5071460;28;20066;-67